Time;durP1;ratioP1;P1;durP2;ratioP2;P2;SDS_P1;SDS_P2;PMS_P1;PMS_P2;Temp;Humidity;BMP_temperature;BMP_pressure;BME280_temperature;BME280_humidity;BME280_pressure;Samples;Min_cycle;Max_cycle;Signal;HPM_P1;HPM_P2
2022/04/17 00:04:16;;;;;;;3.78;2.33;;;9.70;76.50;;;;;;4962199;28;20042;-95
2022/04/17 00:06:53;;;;;;;4.28;2.30;;;9.60;75.80;;;;;;4917689;28;20054;-95
2022/04/17 00:09:38;;;;;;;3.83;2.47;;;9.60;75.80;;;;;;4982832;28;20030;-96
2022/04/17 00:12:50;;;;;;;5.93;2.13;;;9.60;75.40;;;;;;4963068;28;20043;-96
2022/04/17 00:15:35;;;;;;;5.03;2.17;;;9.70;74.90;;;;;;4967849;28;20041;-94
2022/04/17 00:20:58;;;;;;;5.32;2.50;;;9.70;75.50;;;;;;4951017;28;20062;-95
2022/04/17 00:23:30;;;;;;;14.88;2.92;;;9.70;75.50;;;;;;4962133;28;20027;-94
2022/04/17 00:26:12;;;;;;;4.10;2.47;;;9.70;74.60;;;;;;4962858;29;20046;-93
2022/04/17 00:28:47;;;;;;;3.67;2.30;;;9.60;74.90;;;;;;4953952;28;20027;-94
2022/04/17 00:32:05;;;;;;;4.28;2.08;;;9.60;74.80;;;;;;4958233;28;20089;-92
2022/04/17 00:34:40;;;;;;;3.00;2.08;;;9.60;74.70;;;;;;4965058;28;20035;-94
2022/04/17 00:37:08;;;;;;;2.95;2.30;;;9.60;74.50;;;;;;4950228;29;20038;-95
2022/04/17 00:39:46;;;;;;;3.78;2.42;;;9.70;74.10;;;;;;4959009;28;20038;-95
2022/04/17 00:42:35;;;;;;;3.38;2.22;;;9.60;74.40;;;;;;4968738;28;20102;-92
2022/04/17 00:45:04;;;;;;;3.72;2.03;;;9.70;74.90;;;;;;4921105;29;20039;-95
2022/04/17 00:47:32;;;;;;;6.25;2.83;;;9.60;74.10;;;;;;4958594;28;20030;-94
2022/04/17 00:50:07;;;;;;;3.83;2.58;;;9.60;74.60;;;;;;4960945;28;20062;-92
2022/04/17 00:52:39;;;;;;;3.45;2.25;;;9.60;74.30;;;;;;4961056;28;20097;-95
2022/04/17 00:55:09;;;;;;;3.20;2.08;;;9.60;74.40;;;;;;4962510;28;20025;-95
2022/04/17 00:57:44;;;;;;;2.35;2.15;;;9.60;75.20;;;;;;4961652;28;20027;-94
2022/04/17 01:00:22;;;;;;;4.35;2.38;;;9.50;75.10;;;;;;4962113;28;20078;-95
2022/04/17 01:02:51;;;;;;;5.43;2.40;;;9.50;75.30;;;;;;4951324;28;20179;-95
2022/04/17 01:05:43;;;;;;;3.83;2.45;;;9.50;75.90;;;;;;4961056;28;20027;-95
2022/04/17 01:08:15;;;;;;;3.30;2.45;;;9.50;75.30;;;;;;4961464;28;20498;-92
2022/04/17 01:10:50;;;;;;;4.28;2.97;;;9.40;75.00;;;;;;4958478;28;20035;-93
2022/04/17 01:13:17;;;;;;;3.78;2.40;;;9.40;75.10;;;;;;4941316;29;20074;-95
2022/04/17 01:15:44;;;;;;;3.15;2.35;;;9.40;75.30;;;;;;4953598;28;20030;-93
2022/04/17 01:18:16;;;;;;;3.33;2.65;;;9.40;75.00;;;;;;4960273;28;20034;-91
2022/04/17 01:20:47;;;;;;;6.90;2.25;;;9.40;74.40;;;;;;4958044;28;20019;-93
2022/04/17 01:28:47;;;;;;;3.42;2.45;;;9.50;74.90;;;;;;4968311;28;20114;-95
2022/04/17 01:31:13;;;;;;;3.38;2.22;;;9.50;74.40;;;;;;4954135;28;20061;-91
2022/04/17 01:33:46;;;;;;;5.32;2.72;;;9.50;74.10;;;;;;4961312;28;20368;-93
2022/04/17 01:36:24;;;;;;;3.63;2.80;;;9.40;74.30;;;;;;4979304;28;20030;-93
2022/04/17 01:38:50;;;;;;;5.60;2.22;;;9.40;74.40;;;;;;4960949;28;20066;-93
2022/04/17 01:41:18;;;;;;;4.70;2.75;;;9.40;73.80;;;;;;4960857;28;20053;-93
2022/04/17 01:43:49;;;;;;;7.03;2.55;;;9.40;74.50;;;;;;4960771;28;20027;-94
2022/04/17 01:46:15;;;;;;;3.38;2.15;;;9.40;74.40;;;;;;4940799;29;20028;-93
2022/04/17 01:49:01;;;;;;;2.63;2.10;;;9.30;75.20;;;;;;4962222;28;20026;-92
2022/04/17 01:51:54;;;;;;;2.63;2.35;;;9.30;74.80;;;;;;4949957;29;20039;-94
2022/04/17 01:54:24;;;;;;;3.88;2.25;;;9.30;74.90;;;;;;4940900;29;20023;-93
2022/04/17 01:56:56;;;;;;;6.47;2.80;;;9.30;74.70;;;;;;4953664;28;20058;-93
2022/04/17 01:59:41;;;;;;;;;;;9.30;74.60;;;;;;4959911;28;20497;-92
2022/04/17 02:02:54;;;;;;;6.18;2.33;;;9.30;74.60;;;;;;4960256;28;19961;-91
2022/04/17 02:05:31;;;;;;;4.35;2.75;;;9.30;74.80;;;;;;4939062;28;20248;-93
2022/04/17 02:07:57;;;;;;;4.63;2.92;;;9.20;75.50;;;;;;4959878;28;20096;-92
2022/04/17 02:10:46;;;;;;;4.43;2.50;;;9.10;75.20;;;;;;4958327;28;20061;-94
2022/04/17 02:13:23;;;;;;;5.97;2.25;;;9.10;75.40;;;;;;4971652;28;20490;-93
2022/04/17 02:16:09;;;;;;;;;;;;;;;;;;;;;
2022/04/17 02:18:49;;;;;;;3.55;2.53;;;9.00;75.90;;;;;;4961821;28;20027;-92
2022/04/17 02:21:17;;;;;;;6.15;2.50;;;8.90;75.60;;;;;;4960668;28;20030;-92
2022/04/17 02:24:16;;;;;;;9.38;2.58;;;8.90;75.60;;;;;;4961196;28;20055;-95
2022/04/17 02:26:54;;;;;;;5.05;2.22;;;8.90;76.80;;;;;;4959373;28;20033;-94
2022/04/17 02:29:39;;;;;;;;;;;;;;;;;;;;;
2022/04/17 02:32:12;;;;;;;3.80;2.30;;;8.90;76.50;;;;;;4970080;28;20065;-91
2022/04/17 02:35:18;;;;;;;;;;;;;;;;;;;;;
2022/04/17 02:40:45;;;;;;;4.10;3.10;;;8.90;75.60;;;;;;4977347;28;20078;-92
2022/04/17 02:43:15;;;;;;;4.30;2.38;;;8.90;76.40;;;;;;4955779;28;20067;-93
2022/04/17 02:45:56;;;;;;;4.40;2.65;;;8.80;77.10;;;;;;4958219;28;20027;-93
2022/04/17 02:51:54;;;;;;;2.75;2.30;;;8.80;77.40;;;;;;4917586;29;20068;-90
2022/04/17 02:54:41;;;;;;;4.50;2.58;;;8.70;77.20;;;;;;4938359;29;20042;-92
2022/04/17 02:57:54;;;;;;;4.85;2.60;;;8.80;77.60;;;;;;4956505;28;20026;-94
2022/04/17 03:00:26;;;;;;;4.65;2.95;;;8.70;77.40;;;;;;4946023;28;20023;-93
2022/04/17 03:09:28;;;;;;;4.03;2.60;;;8.70;77.60;;;;;;4945224;28;20137;-94
2022/04/17 03:11:54;;;;;;;4.97;2.30;;;8.70;78.10;;;;;;4975761;28;20047;-91
2022/04/17 03:14:27;;;;;;;4.05;2.50;;;8.70;77.30;;;;;;4977079;28;20102;-93
2022/04/17 03:16:52;;;;;;;;;;;8.70;78.20;;;;;;4941634;28;20035;-91
2022/04/17 03:19:24;;;;;;;6.90;2.85;;;8.70;77.60;;;;;;4959234;28;19917;-95
2022/04/17 03:21:55;;;;;;;2.63;1.88;;;8.80;77.60;;;;;;4977224;28;20058;-92
2022/04/17 03:31:34;;;;;;;3.17;2.88;;;8.70;78.30;;;;;;4901570;29;20096;-91
2022/04/17 03:34:43;;;;;;;;;;;;;;;;;;;;;
2022/04/17 03:37:32;;;;;;;4.68;2.92;;;8.60;79.00;;;;;;4790789;29;20045;-93
2022/04/17 03:40:30;;;;;;;2.60;2.40;;;8.50;79.20;;;;;;4847806;29;20064;-94
2022/04/17 03:43:26;;;;;;;3.00;2.60;;;8.60;78.90;;;;;;4885246;29;20124;-93
2022/04/17 03:45:55;;;;;;;5.60;3.03;;;8.60;79.10;;;;;;4932525;28;20043;-92
2022/04/17 03:48:21;;;;;;;3.58;2.90;;;8.60;79.40;;;;;;4959921;28;20045;-92
2022/04/17 03:54:12;;;;;;;3.33;2.67;;;8.50;79.70;;;;;;4922220;29;20043;-92
2022/04/17 03:56:47;;;;;;;3.97;2.83;;;8.50;79.80;;;;;;4950493;29;20033;-92
2022/04/17 03:59:31;;;;;;;3.58;2.50;;;8.50;79.80;;;;;;4958632;29;20033;-91
2022/04/17 04:05:38;;;;;;;4.82;2.95;;;8.50;80.00;;;;;;4933696;28;20570;-90
2022/04/17 04:08:08;;;;;;;5.82;3.10;;;8.40;80.50;;;;;;4960478;28;20023;-92
2022/04/17 04:10:54;;;;;;;3.83;2.70;;;8.40;80.40;;;;;;4959388;28;20530;-92
2022/04/17 04:13:37;;;;;;;4.13;3.15;;;8.40;80.40;;;;;;4940958;29;20063;-91
2022/04/17 04:16:09;;;;;;;3.45;2.90;;;8.50;80.20;;;;;;4952357;28;20061;-94
2022/04/17 04:18:38;;;;;;;4.47;2.97;;;8.50;79.80;;;;;;4959778;28;20023;-93
2022/04/17 04:21:06;;;;;;;5.47;2.70;;;8.50;80.00;;;;;;4976569;28;20086;-90
2022/04/17 04:24:11;;;;;;;3.22;2.35;;;8.60;79.90;;;;;;4960284;28;20038;-93
2022/04/17 04:26:41;;;;;;;6.50;3.65;;;8.50;79.70;;;;;;4955287;28;20031;-93
2022/04/17 04:29:07;;;;;;;3.75;3.20;;;8.50;80.20;;;;;;4977394;28;20117;-92
2022/04/17 04:31:44;;;;;;;3.75;3.10;;;8.50;80.00;;;;;;4959774;28;20037;-93
2022/04/17 04:34:32;;;;;;;4.30;2.92;;;8.50;80.00;;;;;;4976607;28;20091;-92
2022/04/17 04:43:35;;;;;;;3.42;2.60;;;8.50;80.50;;;;;;4832602;29;20083;-93
2022/04/17 04:46:10;;;;;;;6.32;2.85;;;8.50;80.50;;;;;;4832607;29;20517;-91
2022/04/17 04:55:09;;;;;;;4.93;3.00;;;8.50;80.10;;;;;;4905601;29;20052;-90
2022/04/17 04:57:44;;;;;;;4.30;2.97;;;8.50;80.70;;;;;;4950773;28;20033;-93
2022/04/17 05:00:22;;;;;;;4.80;2.80;;;8.50;80.20;;;;;;4959946;28;20194;-94
2022/04/17 05:02:57;;;;;;;3.50;2.60;;;8.60;80.20;;;;;;4978167;28;20029;-93
2022/04/17 05:05:28;;;;;;;4.90;2.80;;;8.60;80.60;;;;;;4978040;28;20762;-93
2022/04/17 05:07:57;;;;;;;4.10;2.97;;;8.60;80.50;;;;;;4976964;28;20030;-94
2022/04/17 05:10:28;;;;;;;3.80;2.78;;;8.60;80.20;;;;;;4959345;28;20114;-93
2022/04/17 05:13:15;;;;;;;4.03;2.70;;;8.60;80.30;;;;;;4964699;28;20498;-91
2022/04/17 05:15:44;;;;;;;3.92;2.67;;;8.60;80.20;;;;;;4946384;28;20041;-92
2022/04/17 05:18:10;;;;;;;2.90;2.55;;;8.70;79.90;;;;;;4977702;28;20035;-91
2022/04/17 05:20:41;;;;;;;5.13;2.80;;;8.70;79.60;;;;;;4940753;29;20554;-93
2022/04/17 05:23:31;;;;;;;5.22;2.60;;;8.80;79.90;;;;;;4975133;28;20054;-95
2022/04/17 05:26:31;;;;;;;4.13;2.72;;;8.80;79.30;;;;;;4978265;28;20023;-95
2022/04/17 05:28:57;;;;;;;3.50;2.60;;;8.90;79.40;;;;;;4952259;28;20041;-94
2022/04/17 05:31:24;;;;;;;5.60;2.70;;;8.90;79.60;;;;;;4981478;28;20057;-92
2022/04/17 05:33:55;;;;;;;5.97;2.97;;;8.90;79.00;;;;;;4968981;28;20133;-95
2022/04/17 05:36:24;;;;;;;5.45;2.50;;;8.90;79.60;;;;;;4982363;28;20027;-91
2022/04/17 05:38:58;;;;;;;3.08;2.50;;;8.90;79.10;;;;;;4972539;28;20031;-95
2022/04/17 05:41:29;;;;;;;3.72;2.45;;;9.00;78.50;;;;;;4976466;28;20080;-94
2022/04/17 05:44:01;;;;;;;5.10;2.50;;;9.00;78.10;;;;;;4944531;28;20039;-90
2022/04/17 05:46:35;;;;;;;4.68;2.70;;;9.10;78.10;;;;;;4966829;28;20031;-90
2022/04/17 05:49:06;;;;;;;3.95;2.45;;;9.10;77.80;;;;;;4976945;28;20034;-94
2022/04/17 05:51:33;;;;;;;2.80;2.33;;;9.20;77.50;;;;;;4963713;28;20391;-93
2022/04/17 05:53:59;;;;;;;4.43;2.92;;;9.20;77.50;;;;;;4968546;28;20077;-92
2022/04/17 05:56:26;;;;;;;4.90;2.38;;;9.30;77.60;;;;;;4966905;28;20063;-96
2022/04/17 05:58:51;;;;;;;5.20;2.60;;;9.30;77.90;;;;;;4983108;28;20482;-93
2022/04/17 06:01:17;;;;;;;2.97;2.67;;;9.30;77.50;;;;;;4982762;28;20054;-91
2022/04/17 06:03:43;;;;;;;8.02;2.60;;;9.30;76.90;;;;;;4965360;28;20038;-91
2022/04/17 06:06:13;;;;;;;4.38;2.85;;;9.30;77.10;;;;;;4960614;28;20394;-91
2022/04/17 06:08:40;;;;;;;4.35;2.47;;;9.40;77.00;;;;;;4978634;28;20064;-90
2022/04/17 06:11:06;;;;;;;6.13;2.85;;;9.40;76.60;;;;;;4968045;28;20035;-95
2022/04/17 06:13:31;;;;;;;7.95;2.78;;;9.40;76.70;;;;;;4976186;28;20031;-93
2022/04/17 06:15:57;;;;;;;3.63;2.58;;;9.40;76.30;;;;;;4969483;28;20086;-96
2022/04/17 06:18:23;;;;;;;5.15;2.53;;;9.50;76.70;;;;;;4969342;28;20062;-92
2022/04/17 06:20:51;;;;;;;4.70;2.50;;;9.50;76.10;;;;;;4965661;28;20027;-94
2022/04/17 06:23:19;;;;;;;2.90;2.38;;;9.50;77.60;;;;;;4966587;28;20034;-96
2022/04/17 06:25:57;;;;;;;4.47;2.05;;;9.60;75.90;;;;;;4966343;28;20146;-94
2022/04/17 06:28:23;;;;;;;6.25;2.50;;;9.60;75.30;;;;;;4987237;28;20126;-95
2022/04/17 06:31:21;;;;;;;3.53;2.38;;;9.60;75.80;;;;;;4969311;28;20053;-93
2022/04/17 06:33:40;;;;;;;4.10;2.80;;;9.70;75.60;;;;;;4977541;28;20042;-94
2022/04/17 06:38:42;;;;;;;5.70;2.72;;;9.80;75.90;;;;;;5459277;23;20067;-96
2022/04/17 06:41:08;;;;;;;6.03;2.60;;;9.80;75.50;;;;;;4953344;29;20038;-95
2022/04/17 06:48:37;;;;;;;2.97;2.42;;;10.00;75.30;;;;;;4948344;29;20055;-94
2022/04/17 06:51:03;;;;;;;3.75;2.53;;;10.10;75.50;;;;;;4942124;29;20039;-88
2022/04/17 06:53:29;;;;;;;9.88;2.92;;;10.10;74.50;;;;;;4951985;29;20074;-93
2022/04/17 06:55:54;;;;;;;3.03;2.05;;;10.10;73.20;;;;;;4950188;29;20110;-86
2022/04/17 06:58:21;;;;;;;4.13;3.15;;;10.10;72.20;;;;;;4954066;29;20032;-91
2022/04/17 07:00:48;;;;;;;3.90;2.35;;;10.10;73.20;;;;;;4928236;29;20031;-92
2022/04/17 07:03:14;;;;;;;3.67;2.33;;;10.10;72.70;;;;;;4932383;29;20073;-88
2022/04/17 07:05:40;;;;;;;14.80;2.40;;;10.10;72.60;;;;;;4925379;29;20095;-89
2022/04/17 07:08:07;;;;;;;7.18;2.13;;;10.20;72.60;;;;;;4948158;29;20119;-92
2022/04/17 07:10:37;;;;;;;2.50;2.30;;;10.20;71.30;;;;;;4933746;29;20039;-92
2022/04/17 07:13:04;;;;;;;4.20;2.03;;;10.20;71.20;;;;;;4946349;29;20046;-93
2022/04/17 07:15:30;;;;;;;4.50;2.38;;;10.30;72.10;;;;;;4948860;29;20034;-93
2022/04/17 07:17:56;;;;;;;5.18;2.35;;;10.30;71.60;;;;;;4958873;29;20036;-93
2022/04/17 07:20:26;;;;;;;8.68;2.70;;;10.30;72.40;;;;;;4928877;29;20032;-82
2022/04/17 07:22:51;;;;;;;2.80;2.22;;;10.40;72.30;;;;;;4950317;29;20072;-83
2022/04/17 07:25:19;;;;;;;2.50;2.00;;;10.40;72.10;;;;;;4943864;29;20027;-84
2022/04/17 07:27:47;;;;;;;28.15;18.48;;;10.40;71.30;;;;;;4916141;29;20100;-94
2022/04/17 07:30:32;;;;;;;11.07;7.22;;;10.40;72.00;;;;;;5000118;23;20058;-84
2022/04/17 07:33:00;;;;;;;15.20;5.38;;;10.50;72.60;;;;;;4962799;29;20023;-92
2022/04/17 07:35:27;;;;;;;6.20;4.20;;;10.70;71.00;;;;;;4956953;29;20023;-90
2022/04/17 07:38:04;;;;;;;7.22;4.72;;;10.60;71.50;;;;;;4954069;29;20031;-88
2022/04/17 07:40:34;;;;;;;11.30;5.40;;;10.70;71.10;;;;;;4953819;29;20031;-88
2022/04/17 07:43:04;;;;;;;3.55;2.95;;;10.70;71.60;;;;;;4956842;29;20518;-90
2022/04/17 07:45:31;;;;;;;8.00;4.72;;;10.90;71.30;;;;;;4955239;28;20023;-89
2022/04/17 07:47:57;;;;;;;6.20;3.25;;;10.90;71.30;;;;;;4959663;29;20547;-88
2022/04/17 07:50:26;;;;;;;6.13;3.05;;;10.90;70.10;;;;;;4950437;29;20470;-91
2022/04/17 07:52:53;;;;;;;4.53;3.65;;;11.00;71.20;;;;;;4937694;29;20071;-86
2022/04/17 07:55:20;;;;;;;3.53;2.85;;;11.10;71.10;;;;;;4945063;29;20020;-88
2022/04/17 08:00:37;;;;;;;5.47;2.78;;;11.20;71.30;;;;;;4955353;29;20608;-90
2022/04/17 08:03:07;;;;;;;4.40;2.50;;;11.40;70.20;;;;;;4959836;29;20030;-89
2022/04/17 08:05:40;;;;;;;6.38;2.42;;;11.40;68.80;;;;;;4960827;29;20095;-92
2022/04/17 08:08:08;;;;;;;13.25;3.15;;;11.40;68.50;;;;;;4971080;28;20027;-96
2022/04/17 08:10:35;;;;;;;3.70;2.28;;;11.40;68.60;;;;;;4962970;29;20023;-88
2022/04/17 08:13:01;;;;;;;3.40;1.70;;;11.50;69.60;;;;;;4964706;29;20081;-93
2022/04/17 08:15:27;;;;;;;8.35;2.83;;;11.50;68.90;;;;;;4968361;29;20036;-87
2022/04/17 08:17:52;;;;;;;3.78;2.40;;;11.70;68.80;;;;;;4960486;29;20035;-86
2022/04/17 08:20:18;;;;;;;2.90;2.20;;;11.70;67.00;;;;;;4975157;28;20035;-93
2022/04/17 08:22:44;;;;;;;3.05;2.22;;;11.80;67.70;;;;;;4972281;28;20047;-90
2022/04/17 08:27:50;;;;;;;4.43;2.30;;;11.80;67.00;;;;;;4982310;23;20088;-88
2022/04/17 08:30:21;;;;;;;7.03;2.40;;;11.70;66.50;;;;;;4957440;28;20034;-89
2022/04/17 08:35:22;;;;;;;4.22;2.40;;;11.80;65.80;;;;;;5024467;23;20061;-87
2022/04/17 08:37:48;;;;;;;3.75;2.30;;;11.80;64.80;;;;;;4947910;29;20031;-94
2022/04/17 08:40:15;;;;;;;3.35;2.10;;;11.90;65.80;;;;;;4959676;29;20031;-85
2022/04/17 08:42:41;;;;;;;6.10;2.22;;;12.00;66.20;;;;;;4938016;29;20035;-90
2022/04/17 08:45:11;;;;;;;4.45;2.47;;;12.10;65.60;;;;;;4962847;29;20019;-88
2022/04/17 08:47:39;;;;;;;2.92;2.20;;;12.30;67.70;;;;;;4960867;29;20114;-88
2022/04/17 08:50:09;;;;;;;3.95;2.40;;;12.40;64.70;;;;;;4961643;29;20027;-94
2022/04/17 08:52:35;;;;;;;4.35;2.00;;;12.30;63.80;;;;;;4966768;29;20032;-91
2022/04/17 08:55:02;;;;;;;5.38;2.13;;;12.30;64.50;;;;;;4942163;29;20071;-89
2022/04/17 08:57:28;;;;;;;4.32;2.22;;;12.40;65.90;;;;;;5105807;23;20147;-91
2022/04/17 08:59:54;;;;;;;3.72;2.20;;;12.60;64.40;;;;;;4988963;28;20039;-90
2022/04/17 09:02:20;;;;;;;3.78;2.10;;;12.50;66.10;;;;;;4988423;28;20035;-88
2022/04/17 09:04:46;;;;;;;4.00;2.60;;;12.70;66.20;;;;;;4984953;28;20025;-89
2022/04/17 09:07:13;;;;;;;4.15;2.20;;;12.80;65.50;;;;;;4983251;28;20027;-87
2022/04/17 09:09:50;;;;;;;6.05;1.73;;;12.90;65.60;;;;;;4979298;28;20034;-89
2022/04/17 09:12:23;;;;;;;3.50;2.20;;;12.90;64.00;;;;;;4972960;28;20039;-86
2022/04/17 09:14:50;;;;;;;5.13;2.42;;;12.90;64.20;;;;;;4976827;28;20101;-88
2022/04/17 09:17:18;;;;;;;6.03;2.20;;;13.10;64.70;;;;;;4975120;28;20110;-89
2022/04/17 09:19:44;;;;;;;4.65;2.13;;;13.00;63.80;;;;;;4976066;28;20019;-85
2022/04/17 09:22:12;;;;;;;4.00;2.13;;;13.10;64.30;;;;;;4985960;28;20014;-90
2022/04/17 09:24:39;;;;;;;3.10;2.13;;;13.10;62.40;;;;;;4973246;28;20106;-87
2022/04/17 09:27:06;;;;;;;5.63;2.05;;;13.10;63.00;;;;;;4976644;28;20030;-86
2022/04/17 09:29:36;;;;;;;4.07;2.50;;;13.20;63.50;;;;;;4980679;28;20033;-85
2022/04/17 09:32:13;;;;;;;3.97;2.05;;;13.20;64.00;;;;;;4974808;28;20043;-89
2022/04/17 09:34:42;;;;;;;5.45;2.03;;;13.30;64.50;;;;;;4985443;28;20018;-87
2022/04/17 09:37:15;;;;;;;2.53;1.95;;;13.30;64.90;;;;;;4984925;28;20031;-90
2022/04/17 09:39:42;;;;;;;4.32;2.50;;;13.40;65.50;;;;;;4990881;28;20018;-86
2022/04/17 09:42:08;;;;;;;3.30;2.00;;;13.50;64.30;;;;;;4978392;28;20027;-87
2022/04/17 09:44:35;;;;;;;3.15;2.17;;;13.40;62.50;;;;;;4985013;28;20026;-89
2022/04/17 09:47:03;;;;;;;5.72;2.08;;;13.30;63.30;;;;;;4992227;28;20034;-89
2022/04/17 09:49:32;;;;;;;3.28;2.10;;;13.30;63.80;;;;;;4992117;28;20087;-90
2022/04/17 09:52:08;;;;;;;8.57;2.30;;;13.40;63.60;;;;;;4974257;28;20037;-91
2022/04/17 09:54:35;;;;;;;4.68;2.45;;;13.50;64.70;;;;;;4987938;28;20027;-90
2022/04/17 09:57:01;;;;;;;5.55;2.35;;;13.70;64.10;;;;;;4985157;28;20030;-91
2022/04/17 09:59:27;;;;;;;2.78;2.10;;;13.50;64.40;;;;;;4982151;28;20050;-92
2022/04/17 10:01:57;;;;;;;3.90;2.17;;;13.70;64.20;;;;;;4973965;28;20507;-90
2022/04/17 10:04:24;;;;;;;7.22;2.85;;;13.80;64.40;;;;;;4981502;28;20031;-85
2022/04/17 10:06:53;;;;;;;3.72;2.67;;;13.90;65.10;;;;;;4977312;28;20634;-82
2022/04/17 10:09:20;;;;;;;8.70;2.35;;;14.10;65.00;;;;;;4978271;28;20110;-87
2022/04/17 10:11:49;;;;;;;8.10;2.17;;;14.10;63.90;;;;;;4980273;28;20035;-87
2022/04/17 10:14:15;;;;;;;4.00;2.10;;;14.00;63.20;;;;;;4973985;28;20110;-83
2022/04/17 10:16:43;;;;;;;4.28;1.98;;;13.90;63.20;;;;;;4970981;28;20498;-83
2022/04/17 10:19:16;;;;;;;5.47;2.63;;;13.60;64.10;;;;;;4977076;28;20038;-90
2022/04/17 10:21:45;;;;;;;4.60;2.53;;;13.70;65.10;;;;;;4981646;28;20038;-88
2022/04/17 10:24:12;;;;;;;6.75;2.45;;;13.80;68.10;;;;;;4961974;28;20094;-84
2022/04/17 10:26:44;;;;;;;4.07;2.33;;;14.00;67.40;;;;;;4981860;28;20104;-87
2022/04/17 10:29:33;;;;;;;3.88;2.72;;;14.10;65.00;;;;;;4972931;28;20033;-91
2022/04/17 10:32:07;;;;;;;5.60;2.80;;;14.40;68.40;;;;;;4971434;28;20038;-92
2022/04/17 10:35:08;;;;;;;6.95;2.50;;;14.60;63.90;;;;;;4982679;28;20062;-92
2022/04/17 10:38:10;;;;;;;6.38;2.47;;;14.60;65.00;;;;;;4980535;28;20027;-92
2022/04/17 10:40:37;;;;;;;3.92;2.50;;;14.20;62.60;;;;;;4982146;28;20065;-89
2022/04/17 10:43:04;;;;;;;4.95;2.30;;;14.00;64.50;;;;;;4983939;28;20023;-89
2022/04/17 10:45:33;;;;;;;3.78;2.50;;;14.20;65.60;;;;;;4981284;28;20029;-91
2022/04/17 10:48:05;;;;;;;7.20;3.63;;;14.40;64.00;;;;;;4980158;28;20678;-93
2022/04/17 10:50:44;;;;;;;3.55;2.75;;;14.60;63.40;;;;;;4982157;28;20022;-91
2022/04/17 10:53:25;;;;;;;4.72;2.20;;;14.60;63.50;;;;;;4984853;28;20039;-92
2022/04/17 10:56:10;;;;;;;3.92;2.40;;;14.70;62.10;;;;;;4984361;28;20050;-91
2022/04/17 10:58:44;;;;;;;6.72;2.50;;;14.60;64.00;;;;;;4960238;29;20043;-91
2022/04/17 11:01:12;;;;;;;6.70;2.70;;;14.80;65.70;;;;;;4953131;28;20030;-92
2022/04/17 11:03:38;;;;;;;5.38;2.53;;;15.00;63.10;;;;;;4978214;28;20466;-94
2022/04/17 11:06:31;;;;;;;5.43;2.92;;;15.00;63.40;;;;;;4977358;28;20446;-92
2022/04/17 11:09:15;;;;;;;6.78;2.45;;;14.90;63.40;;;;;;4978204;28;20108;-92
2022/04/17 11:11:44;;;;;;;4.72;1.95;;;14.80;61.70;;;;;;4992484;28;20050;-91
2022/04/17 11:14:20;;;;;;;5.80;2.80;;;14.80;65.60;;;;;;4986463;28;20125;-93
2022/04/17 11:16:59;;;;;;;2.53;2.30;;;14.90;62.30;;;;;;4985324;28;20030;-92
2022/04/17 11:19:31;;;;;;;4.53;2.40;;;14.60;62.90;;;;;;4987865;28;20023;-92
2022/04/17 11:21:59;;;;;;;3.70;2.77;;;14.60;63.10;;;;;;4982211;28;20030;-92
2022/04/17 11:24:27;;;;;;;4.47;3.45;;;14.90;64.70;;;;;;4981831;28;20049;-92
2022/04/17 11:26:53;;;;;;;4.07;2.70;;;15.00;62.10;;;;;;4983017;28;20035;-91
2022/04/17 11:29:51;;;;;;;5.10;2.28;;;15.20;64.60;;;;;;4982068;28;20090;-92
2022/04/17 11:32:16;;;;;;;4.93;2.13;;;15.30;63.90;;;;;;4973066;28;20043;-93
2022/04/17 11:34:52;;;;;;;8.10;2.70;;;15.40;61.50;;;;;;4978654;28;20030;-93
2022/04/17 11:37:22;;;;;;;4.45;2.42;;;15.10;61.30;;;;;;4979199;28;20023;-94
2022/04/17 11:39:49;;;;;;;2.95;2.13;;;15.00;62.10;;;;;;4979215;28;20019;-94
2022/04/17 11:42:15;;;;;;;4.70;2.33;;;14.90;62.00;;;;;;4984683;28;20061;-92
2022/04/17 11:44:42;;;;;;;3.35;2.55;;;15.00;62.40;;;;;;4991072;28;20023;-92
2022/04/17 11:47:13;;;;;;;5.13;2.53;;;15.20;61.60;;;;;;4982780;28;20490;-92
2022/04/17 11:49:42;;;;;;;4.93;2.75;;;15.30;61.50;;;;;;4980691;28;20038;-93
2022/04/17 11:52:16;;;;;;;2.45;2.08;;;15.40;61.70;;;;;;4985728;28;20054;-93
2022/04/17 11:54:43;;;;;;;4.10;2.55;;;15.60;60.30;;;;;;4984951;28;20025;-88
2022/04/17 11:57:10;;;;;;;6.70;4.95;;;15.90;60.00;;;;;;4984978;28;20031;-92
2022/04/17 11:59:47;;;;;;;5.47;2.30;;;16.20;64.00;;;;;;4989039;28;20115;-93
2022/04/17 12:02:18;;;;;;;6.43;2.85;;;16.50;59.80;;;;;;4985470;28;20023;-91
2022/04/17 12:04:45;;;;;;;12.18;4.75;;;16.70;60.00;;;;;;4981226;28;20101;-91
2022/04/17 12:07:11;;;;;;;4.78;2.30;;;17.50;59.40;;;;;;4984386;28;20026;-91
2022/04/17 12:09:38;;;;;;;4.13;2.85;;;20.10;55.90;;;;;;4979127;28;20027;-92
2022/04/17 12:12:13;;;;;;;4.47;2.30;;;23.30;52.90;;;;;;4981179;28;20038;-95
2022/04/17 12:14:39;;;;;;;4.78;2.30;;;24.60;50.80;;;;;;4983741;28;20027;-91
2022/04/17 12:17:05;;;;;;;3.38;2.42;;;25.50;48.90;;;;;;4983140;28;20038;-93
2022/04/17 12:19:32;;;;;;;5.15;2.13;;;26.00;47.60;;;;;;4979278;28;20019;-93
2022/04/17 12:21:58;;;;;;;6.60;2.63;;;26.40;47.20;;;;;;4975164;28;20027;-93
2022/04/17 12:24:27;;;;;;;3.83;2.35;;;26.80;46.10;;;;;;4958416;29;20074;-92
2022/04/17 12:26:54;;;;;;;3.55;2.10;;;26.40;45.90;;;;;;4979850;28;20050;-91
2022/04/17 12:29:20;;;;;;;4.82;2.47;;;26.50;45.70;;;;;;4981400;28;20367;-91
2022/04/17 12:31:45;;;;;;;7.13;5.03;;;26.00;45.70;;;;;;4983964;28;20031;-92
2022/04/17 12:34:16;;;;;;;8.15;2.65;;;25.30;46.80;;;;;;4980465;28;20085;-91
2022/04/17 12:36:44;;;;;;;3.97;2.00;;;25.80;46.90;;;;;;4980985;28;20047;-93
2022/04/17 12:39:10;;;;;;;5.13;2.20;;;27.30;44.70;;;;;;4980807;28;20054;-92
2022/04/17 12:41:49;;;;;;;2.33;1.80;;;28.00;44.80;;;;;;4980141;28;20474;-92
2022/04/17 12:44:14;;;;;;;4.05;2.00;;;29.10;44.40;;;;;;4959817;29;20027;-91
2022/04/17 12:46:43;;;;;;;5.18;1.92;;;29.70;43.30;;;;;;4973310;28;20046;-91
2022/04/17 12:49:10;;;;;;;2.80;1.60;;;29.50;42.20;;;;;;4978405;28;20482;-88
2022/04/17 12:51:39;;;;;;;4.55;1.63;;;29.80;42.00;;;;;;4980179;28;20073;-90
2022/04/17 12:54:10;;;;;;;2.80;1.98;;;29.40;42.00;;;;;;4978172;28;20027;-94
2022/04/17 12:56:36;;;;;;;7.57;2.50;;;27.80;41.80;;;;;;4978098;28;20058;-92
2022/04/17 12:59:02;;;;;;;3.55;1.92;;;27.00;43.40;;;;;;4978389;28;20054;-91
2022/04/17 13:01:33;;;;;;;2.38;1.70;;;27.30;42.40;;;;;;4982275;28;20030;-91
2022/04/17 13:04:11;;;;;;;2.80;1.90;;;27.90;42.60;;;;;;4985079;28;20023;-90
2022/04/17 13:06:37;;;;;;;3.63;2.20;;;30.10;41.70;;;;;;4980108;28;20035;-91
2022/04/17 13:09:18;;;;;;;3.42;2.00;;;32.40;40.70;;;;;;4981450;28;20031;-91
2022/04/17 13:11:44;;;;;;;3.67;1.90;;;30.80;40.00;;;;;;4986063;28;20034;-90
2022/04/17 13:14:10;;;;;;;4.35;2.17;;;32.40;40.00;;;;;;4985366;28;20050;-92
2022/04/17 13:16:58;;;;;;;2.22;1.90;;;31.80;39.80;;;;;;4984008;28;20037;-90
2022/04/17 13:19:25;;;;;;;3.20;2.05;;;30.30;39.60;;;;;;4972528;28;20023;-90
2022/04/17 13:21:54;;;;;;;4.82;1.90;;;28.10;41.90;;;;;;4986160;28;20284;-90
2022/04/17 13:24:21;;;;;;;3.55;1.80;;;29.60;40.30;;;;;;4980470;28;20022;-89
2022/04/17 13:26:47;;;;;;;3.88;2.22;;;30.30;39.70;;;;;;4976633;28;20030;-89
2022/04/17 13:29:13;;;;;;;3.17;1.60;;;30.90;40.00;;;;;;4988329;28;20050;-91
2022/04/17 13:31:38;;;;;;;2.65;2.03;;;31.40;39.80;;;;;;4990953;28;20050;-88
2022/04/17 13:34:05;;;;;;;5.70;2.10;;;31.10;39.00;;;;;;4982651;28;20027;-90
2022/04/17 13:36:31;;;;;;;3.17;2.25;;;31.70;39.20;;;;;;4983879;28;20027;-91
2022/04/17 13:38:57;;;;;;;5.00;1.83;;;30.70;39.60;;;;;;4983613;28;20033;-89
2022/04/17 13:41:23;;;;;;;5.80;2.22;;;28.60;39.00;;;;;;4984004;28;20065;-91
2022/04/17 13:43:50;;;;;;;6.65;2.10;;;28.90;40.20;;;;;;4981354;28;20110;-90
2022/04/17 13:46:16;;;;;;;2.67;1.98;;;28.70;40.30;;;;;;4980743;28;20041;-88
2022/04/17 13:48:43;;;;;;;4.35;2.00;;;27.90;40.70;;;;;;4980551;28;20051;-91
2022/04/17 13:51:09;;;;;;;3.63;1.48;;;27.60;40.90;;;;;;4980074;28;20186;-91
2022/04/17 13:53:35;;;;;;;3.50;1.70;;;28.00;40.40;;;;;;4982639;28;20038;-92
2022/04/17 13:56:02;;;;;;;6.78;1.90;;;28.70;39.50;;;;;;4976281;28;20027;-89
2022/04/17 13:58:28;;;;;;;7.05;2.42;;;27.60;39.60;;;;;;4976464;28;20422;-91
2022/04/17 14:00:56;;;;;;;2.28;1.90;;;27.50;40.60;;;;;;4978638;28;20111;-88
2022/04/17 14:03:25;;;;;;;5.05;1.90;;;27.80;40.10;;;;;;4980503;28;20030;-89
2022/04/17 14:05:52;;;;;;;3.03;1.67;;;27.00;40.30;;;;;;4977186;28;20081;-90
2022/04/17 14:08:18;;;;;;;3.30;2.00;;;27.60;40.40;;;;;;4977988;28;20018;-88
2022/04/17 14:10:45;;;;;;;6.07;1.98;;;27.50;40.00;;;;;;4978339;28;20038;-90
2022/04/17 14:13:12;;;;;;;2.75;1.63;;;27.60;40.30;;;;;;4978210;28;20438;-90
2022/04/17 14:15:37;;;;;;;6.40;1.75;;;27.10;40.30;;;;;;4977031;28;20061;-91
2022/04/17 14:18:03;;;;;;;7.45;2.10;;;27.30;39.60;;;;;;4977166;28;20474;-92
2022/04/17 14:20:30;;;;;;;3.65;1.83;;;26.00;40.90;;;;;;4974656;28;20027;-90
2022/04/17 14:22:56;;;;;;;3.00;1.50;;;26.20;40.90;;;;;;4977573;28;20022;-89
2022/04/17 14:25:22;;;;;;;3.17;1.73;;;27.50;40.50;;;;;;4977223;28;20596;-89
2022/04/17 14:27:47;;;;;;;2.30;1.40;;;29.20;39.50;;;;;;4976287;28;20058;-91